Time;durP1;ratioP1;P1;durP2;ratioP2;P2;SDS_P1;SDS_P2;PMS_P1;PMS_P2;Temp;Humidity;BMP_temperature;BMP_pressure;BME280_temperature;BME280_humidity;BME280_pressure;Samples;Min_cycle;Max_cycle;Signal;HPM_P1;HPM_P2
2023/10/15 00:00:25;;;;;;;2.55;0.80;;;9.60;99.90;;;;;;5074476;28;20728;-63
2023/10/15 00:02:53;;;;;;;3.85;1.48;;;9.80;99.90;;;;;;5073232;28;20242;-63
2023/10/15 00:05:26;;;;;;;3.10;1.00;;;9.90;99.90;;;;;;5083126;28;20241;-63
2023/10/15 00:07:57;;;;;;;2.40;0.80;;;9.90;99.90;;;;;;5081654;28;20215;-63
2023/10/15 00:10:26;;;;;;;3.20;1.02;;;9.90;99.90;;;;;;5076845;28;20575;-64
2023/10/15 00:12:56;;;;;;;1.15;0.73;;;9.80;99.90;;;;;;5074396;28;20239;-64
2023/10/15 00:15:27;;;;;;;4.55;1.08;;;9.70;99.90;;;;;;5082649;28;20321;-64
2023/10/15 00:17:58;;;;;;;1.52;0.70;;;9.90;99.90;;;;;;5075417;28;20196;-65
2023/10/15 00:20:31;;;;;;;3.08;0.80;;;9.90;99.90;;;;;;5076350;28;20294;-64
2023/10/15 00:23:04;;;;;;;1.45;0.60;;;9.80;99.90;;;;;;5081341;28;20594;-64
2023/10/15 00:25:37;;;;;;;5.43;1.20;;;9.70;99.90;;;;;;5076161;28;20208;-64
2023/10/15 00:28:09;;;;;;;1.15;0.80;;;9.60;99.90;;;;;;5077126;28;20292;-64
2023/10/15 00:30:39;;;;;;;3.03;0.80;;;9.50;99.90;;;;;;5079792;28;20685;-64
2023/10/15 00:33:11;;;;;;;1.55;0.90;;;9.50;99.90;;;;;;5075503;28;20749;-63
2023/10/15 00:35:44;;;;;;;1.73;1.00;;;9.40;99.90;;;;;;5087305;28;20237;-64
2023/10/15 00:38:16;;;;;;;1.52;0.90;;;9.40;99.90;;;;;;5085857;28;20214;-63
2023/10/15 00:40:46;;;;;;;1.42;0.65;;;9.30;99.90;;;;;;5075508;28;20211;-63
2023/10/15 00:43:17;;;;;;;1.40;1.00;;;9.30;99.90;;;;;;5078535;28;20709;-63
2023/10/15 00:45:46;;;;;;;3.72;1.05;;;9.40;99.90;;;;;;5075682;28;20213;-63
2023/10/15 00:48:22;;;;;;;1.10;0.70;;;9.30;99.90;;;;;;5077113;28;20220;-64
2023/10/15 00:50:52;;;;;;;2.10;1.10;;;9.20;99.90;;;;;;5077916;28;20210;-64
2023/10/15 00:53:23;;;;;;;2.95;0.80;;;9.20;99.90;;;;;;5077080;28;20224;-64
2023/10/15 00:55:51;;;;;;;3.45;1.02;;;9.20;99.90;;;;;;5075475;28;20207;-63
2023/10/15 00:58:31;;;;;;;2.10;1.02;;;9.20;99.90;;;;;;5074755;28;20199;-64
2023/10/15 01:01:19;;;;;;;2.00;0.80;;;9.10;99.90;;;;;;5075408;28;20225;-63
2023/10/15 01:03:51;;;;;;;0.93;0.70;;;9.20;99.90;;;;;;5075380;28;20226;-63
2023/10/15 01:06:29;;;;;;;3.15;0.80;;;9.30;99.90;;;;;;5081964;28;20207;-63
2023/10/15 01:08:59;;;;;;;2.03;0.93;;;9.30;99.90;;;;;;5085455;28;20242;-63
2023/10/15 01:11:29;;;;;;;1.80;0.88;;;9.30;99.90;;;;;;5074845;28;20286;-63
2023/10/15 01:13:59;;;;;;;1.60;0.85;;;9.30;99.90;;;;;;5075496;28;20306;-63
2023/10/15 01:16:31;;;;;;;2.88;1.13;;;9.40;99.90;;;;;;5075983;28;20203;-63
2023/10/15 01:19:07;;;;;;;1.30;0.63;;;9.50;99.90;;;;;;5074604;28;20270;-63
2023/10/15 01:21:43;;;;;;;2.45;0.93;;;9.50;99.90;;;;;;5079484;28;20217;-63
2023/10/15 01:24:18;;;;;;;1.58;0.70;;;9.40;99.90;;;;;;5077296;28;20280;-63
2023/10/15 01:26:59;;;;;;;2.55;1.00;;;9.40;99.90;;;;;;5074857;28;20198;-63
2023/10/15 01:29:28;;;;;;;1.55;0.95;;;9.40;99.90;;;;;;5074236;28;20243;-64
2023/10/15 01:31:58;;;;;;;2.78;0.90;;;9.40;99.90;;;;;;5075351;28;20200;-64
2023/10/15 01:34:27;;;;;;;1.27;0.60;;;9.30;99.90;;;;;;5075912;28;20249;-64
2023/10/15 01:36:57;;;;;;;1.08;0.98;;;9.20;99.90;;;;;;5086426;28;20207;-63
2023/10/15 01:39:37;;;;;;;1.38;1.00;;;9.10;99.90;;;;;;5075815;28;20208;-63
2023/10/15 01:42:06;;;;;;;4.10;1.38;;;9.20;99.90;;;;;;5074234;28;20234;-63
2023/10/15 01:44:39;;;;;;;2.05;0.90;;;9.10;99.90;;;;;;5074368;28;20245;-63
2023/10/15 01:47:11;;;;;;;1.50;0.80;;;9.10;99.90;;;;;;5074596;28;20203;-63
2023/10/15 01:49:39;;;;;;;1.80;1.05;;;9.10;99.90;;;;;;5074411;28;20215;-63
2023/10/15 01:52:09;;;;;;;1.95;1.10;;;9.20;99.90;;;;;;5076454;28;20253;-64
2023/10/15 01:54:37;;;;;;;2.95;1.02;;;9.20;99.90;;;;;;5074378;28;20275;-64
2023/10/15 01:57:07;;;;;;;1.70;0.98;;;9.20;99.90;;;;;;5074475;28;20210;-64
2023/10/15 01:59:45;;;;;;;1.10;0.90;;;9.30;99.90;;;;;;5073788;28;20195;-64
2023/10/15 02:02:14;;;;;;;2.45;1.25;;;9.20;99.90;;;;;;5076849;28;20210;-64
2023/10/15 02:04:44;;;;;;;5.15;1.33;;;9.20;99.90;;;;;;5078211;28;20250;-63
2023/10/15 02:07:16;;;;;;;1.30;1.15;;;9.30;99.90;;;;;;5083830;28;20210;-64
2023/10/15 02:09:44;;;;;;;1.60;1.00;;;9.50;99.90;;;;;;5073851;28;20234;-65
2023/10/15 02:12:17;;;;;;;2.85;1.20;;;9.50;99.90;;;;;;5076887;28;20214;-63
2023/10/15 02:14:47;;;;;;;2.17;0.68;;;9.30;99.90;;;;;;5074129;28;20719;-63
2023/10/15 02:17:18;;;;;;;1.80;0.98;;;9.30;99.90;;;;;;5073881;28;20203;-64
2023/10/15 02:19:47;;;;;;;2.17;1.15;;;9.30;99.90;;;;;;5073656;28;20252;-63
2023/10/15 02:22:16;;;;;;;1.15;0.90;;;9.30;99.90;;;;;;5076392;28;20657;-64
2023/10/15 02:24:47;;;;;;;1.52;1.20;;;9.20;99.90;;;;;;5073827;28;20231;-63
2023/10/15 02:27:23;;;;;;;1.10;1.00;;;9.20;99.90;;;;;;5073908;28;20221;-63
2023/10/15 02:29:51;;;;;;;2.33;1.40;;;9.10;99.90;;;;;;5073817;28;20246;-63
2023/10/15 02:32:28;;;;;;;1.88;1.35;;;9.00;99.90;;;;;;5073543;28;20831;-63
2023/10/15 02:34:58;;;;;;;1.58;1.30;;;8.90;99.90;;;;;;5079642;28;20229;-63
2023/10/15 02:37:27;;;;;;;3.25;1.17;;;9.10;99.90;;;;;;5087048;28;20213;-64
2023/10/15 02:39:58;;;;;;;2.05;1.00;;;8.90;99.90;;;;;;5074128;28;20308;-64
2023/10/15 02:42:35;;;;;;;1.05;0.70;;;9.00;99.90;;;;;;5075037;28;20234;-63
2023/10/15 02:45:06;;;;;;;1.23;0.95;;;8.90;99.90;;;;;;5073874;28;20233;-63
2023/10/15 02:47:41;;;;;;;7.20;1.23;;;8.90;99.90;;;;;;5073403;28;20290;-63
2023/10/15 02:50:18;;;;;;;6.00;1.50;;;8.70;99.90;;;;;;5075662;28;20229;-63
2023/10/15 02:52:47;;;;;;;3.38;1.23;;;8.50;99.90;;;;;;5073685;28;20195;-63
2023/10/15 02:55:26;;;;;;;0.90;0.80;;;8.70;99.90;;;;;;5073409;28;20209;-64
2023/10/15 02:58:00;;;;;;;4.70;1.15;;;8.80;99.90;;;;;;5073845;28;20285;-63
2023/10/15 03:00:33;;;;;;;1.65;0.90;;;8.70;99.90;;;;;;5074741;28;20275;-64
2023/10/15 03:03:09;;;;;;;1.83;1.05;;;8.70;99.90;;;;;;5073150;28;20318;-64
2023/10/15 03:05:40;;;;;;;3.00;1.27;;;8.60;99.90;;;;;;5084656;28;20202;-64
2023/10/15 03:08:09;;;;;;;1.30;0.85;;;8.60;99.90;;;;;;5090219;28;20286;-64
2023/10/15 03:10:45;;;;;;;1.20;1.00;;;8.60;99.90;;;;;;5073208;28;20251;-64
2023/10/15 03:13:15;;;;;;;1.55;0.80;;;8.60;99.90;;;;;;5073496;28;20234;-64
2023/10/15 03:15:48;;;;;;;1.00;0.80;;;8.70;99.90;;;;;;5080962;28;20283;-63
2023/10/15 03:18:22;;;;;;;1.58;0.80;;;8.70;99.90;;;;;;5076437;28;20679;-63
2023/10/15 03:20:57;;;;;;;5.95;1.00;;;8.90;99.90;;;;;;5073213;28;20614;-63
2023/10/15 03:23:25;;;;;;;1.08;0.90;;;8.90;99.90;;;;;;5073173;28;20246;-64
2023/10/15 03:25:57;;;;;;;2.53;1.13;;;9.00;99.90;;;;;;5073399;28;20561;-63
2023/10/15 03:28:26;;;;;;;1.50;0.80;;;9.10;99.90;;;;;;5075118;28;20263;-63
2023/10/15 03:30:56;;;;;;;3.53;1.00;;;9.10;99.90;;;;;;5070201;28;20318;-65
2023/10/15 03:33:29;;;;;;;2.53;0.80;;;9.10;99.90;;;;;;5072572;28;20231;-63
2023/10/15 03:36:03;;;;;;;5.38;2.22;;;8.90;99.90;;;;;;5087386;28;20665;-63
2023/10/15 03:38:34;;;;;;;2.00;0.68;;;9.00;99.90;;;;;;5082526;28;20287;-63
2023/10/15 03:41:11;;;;;;;2.45;0.95;;;8.90;99.90;;;;;;5072932;28;20239;-63
2023/10/15 03:43:40;;;;;;;1.20;0.90;;;8.70;99.90;;;;;;5072854;28;20230;-63
2023/10/15 03:46:17;;;;;;;1.00;0.90;;;8.60;99.90;;;;;;5078469;28;20269;-63
2023/10/15 03:48:49;;;;;;;1.33;1.00;;;8.60;99.90;;;;;;5087621;28;20226;-63
2023/10/15 03:51:20;;;;;;;2.38;1.33;;;8.50;99.90;;;;;;5080101;28;20223;-63
2023/10/15 03:53:50;;;;;;;2.47;1.00;;;8.50;99.90;;;;;;5078171;28;20226;-62
2023/10/15 03:56:19;;;;;;;3.58;0.90;;;8.60;99.90;;;;;;5076889;28;20206;-63
2023/10/15 03:58:51;;;;;;;4.90;1.00;;;8.50;99.90;;;;;;5078785;28;20207;-63
2023/10/15 04:01:21;;;;;;;2.13;0.80;;;8.30;99.90;;;;;;5076693;28;20230;-63
2023/10/15 04:03:50;;;;;;;1.27;0.70;;;8.30;99.90;;;;;;5077056;28;20728;-64
2023/10/15 04:06:19;;;;;;;1.15;0.90;;;8.20;99.90;;;;;;5089755;28;20233;-64
2023/10/15 04:09:09;;;;;;;3.78;0.70;;;8.30;99.90;;;;;;5084116;28;20264;-64
2023/10/15 04:11:42;;;;;;;2.95;0.73;;;8.40;99.90;;;;;;5076671;28;20200;-64
2023/10/15 04:14:17;;;;;;;2.58;1.00;;;8.60;99.90;;;;;;5079306;28;20262;-64
2023/10/15 04:16:46;;;;;;;2.15;0.80;;;8.40;99.90;;;;;;5078910;28;20252;-64
2023/10/15 04:19:17;;;;;;;3.50;0.90;;;8.30;99.90;;;;;;5076594;28;20234;-64
2023/10/15 04:21:46;;;;;;;2.35;1.02;;;8.30;99.90;;;;;;5076862;28;20206;-64
2023/10/15 04:24:18;;;;;;;1.60;1.05;;;8.50;99.90;;;;;;5079586;28;20222;-64
2023/10/15 04:26:48;;;;;;;3.08;0.73;;;8.60;99.90;;;;;;5081606;28;20207;-64
2023/10/15 04:29:18;;;;;;;1.70;1.02;;;8.60;99.90;;;;;;5076154;28;20211;-64
2023/10/15 04:31:56;;;;;;;1.98;0.98;;;8.60;99.90;;;;;;5082674;28;20298;-64
2023/10/15 04:34:26;;;;;;;4.10;0.90;;;8.60;99.90;;;;;;5076174;28;20606;-63
2023/10/15 04:36:57;;;;;;;0.70;0.60;;;8.50;99.90;;;;;;5081488;28;20617;-63
2023/10/15 04:39:25;;;;;;;1.80;1.10;;;8.60;99.90;;;;;;5076276;28;20234;-63
2023/10/15 04:42:20;;;;;;;1.20;1.10;;;8.60;99.90;;;;;;5087290;28;20230;-63
2023/10/15 04:44:50;;;;;;;1.02;0.93;;;8.60;99.90;;;;;;5076499;28;20303;-63
2023/10/15 04:47:25;;;;;;;4.63;1.52;;;8.50;99.90;;;;;;5076037;28;20268;-64
2023/10/15 04:49:57;;;;;;;1.30;0.90;;;8.40;99.90;;;;;;5078749;28;20219;-65
2023/10/15 04:52:26;;;;;;;1.67;1.00;;;8.30;99.90;;;;;;5078219;28;20661;-64
2023/10/15 04:54:55;;;;;;;4.75;1.35;;;8.10;99.90;;;;;;5076062;28;20285;-64
2023/10/15 04:57:24;;;;;;;2.35;1.90;;;8.30;99.90;;;;;;5074721;28;20207;-64
2023/10/15 04:59:54;;;;;;;3.15;1.02;;;8.40;99.90;;;;;;5076305;28;20209;-64
2023/10/15 05:02:22;;;;;;;3.80;1.13;;;8.40;99.90;;;;;;5075491;28;20206;-64
2023/10/15 05:04:50;;;;;;;2.17;1.10;;;8.20;99.90;;;;;;5080449;28;20230;-64
2023/10/15 05:07:20;;;;;;;1.00;0.90;;;8.20;99.90;;;;;;5091894;28;20289;-63
2023/10/15 05:09:48;;;;;;;1.70;1.08;;;8.10;99.90;;;;;;5075870;28;20203;-63
2023/10/15 05:12:16;;;;;;;1.20;0.90;;;8.10;99.90;;;;;;5079288;28;20264;-64
2023/10/15 05:14:49;;;;;;;1.85;0.80;;;8.00;99.90;;;;;;5075959;28;20227;-63
2023/10/15 05:17:20;;;;;;;1.23;0.98;;;7.80;99.90;;;;;;5075897;28;20662;-63
2023/10/15 05:19:53;;;;;;;4.97;1.10;;;7.90;99.90;;;;;;5076137;28;20211;-63
2023/10/15 05:22:21;;;;;;;2.53;1.30;;;7.80;99.90;;;;;;5075500;28;20213;-63
2023/10/15 05:24:49;;;;;;;2.75;1.40;;;7.80;99.90;;;;;;5075805;28;20280;-63
2023/10/15 05:27:17;;;;;;;2.63;0.95;;;7.70;99.90;;;;;;5075801;28;20253;-63
2023/10/15 05:29:46;;;;;;;1.30;1.10;;;7.50;99.90;;;;;;5075557;28;20207;-63
2023/10/15 05:32:14;;;;;;;1.20;0.90;;;7.50;99.90;;;;;;5078320;28;20214;-64
2023/10/15 05:34:43;;;;;;;2.55;1.13;;;7.50;99.90;;;;;;5073960;28;20227;-63
2023/10/15 05:37:11;;;;;;;1.75;0.80;;;7.40;99.90;;;;;;5075483;28;20705;-63
2023/10/15 05:39:41;;;;;;;2.05;0.80;;;7.60;99.90;;;;;;5075273;28;20688;-63
2023/10/15 05:42:09;;;;;;;2.13;1.20;;;7.40;99.90;;;;;;5077260;28;20716;-63
2023/10/15 05:44:37;;;;;;;3.50;0.85;;;7.50;99.90;;;;;;5075960;28;20723;-63
2023/10/15 05:47:06;;;;;;;1.27;0.90;;;7.40;99.90;;;;;;5075575;28;20207;-63
2023/10/15 05:49:34;;;;;;;3.10;1.10;;;7.40;99.90;;;;;;5074610;28;20670;-63
2023/10/15 05:52:06;;;;;;;1.60;1.00;;;7.40;99.90;;;;;;5078627;28;20715;-63
2023/10/15 05:54:33;;;;;;;1.58;0.90;;;7.40;99.90;;;;;;5076436;28;20223;-63
2023/10/15 05:57:02;;;;;;;4.20;1.17;;;7.40;99.90;;;;;;5075206;28;20211;-63
2023/10/15 05:59:31;;;;;;;2.30;1.35;;;7.40;99.90;;;;;;5074874;28;20602;-63
2023/10/15 06:01:59;;;;;;;2.10;1.10;;;7.40;99.90;;;;;;5075983;28;20203;-63
2023/10/15 06:04:27;;;;;;;4.90;1.98;;;7.70;99.90;;;;;;5078232;28;20258;-63
2023/10/15 06:06:55;;;;;;;1.38;0.80;;;7.60;99.90;;;;;;5090963;28;20199;-63
2023/10/15 06:09:25;;;;;;;2.25;0.95;;;7.60;99.90;;;;;;5077112;28;20215;-63
2023/10/15 06:11:54;;;;;;;3.92;1.08;;;7.40;99.90;;;;;;5074777;28;20638;-63
2023/10/15 06:14:23;;;;;;;1.38;0.88;;;7.40;99.90;;;;;;5077707;28;20218;-63
2023/10/15 06:16:52;;;;;;;3.40;1.27;;;7.40;99.90;;;;;;5074899;28;20585;-63
2023/10/15 06:19:20;;;;;;;1.50;1.30;;;7.70;99.90;;;;;;5074703;28;20207;-63
2023/10/15 06:21:48;;;;;;;4.20;1.63;;;7.60;99.90;;;;;;5074588;28;20207;-63
2023/10/15 06:24:17;;;;;;;2.85;1.30;;;7.50;99.90;;;;;;5078190;28;20283;-64
2023/10/15 06:26:47;;;;;;;1.13;1.02;;;7.50;99.90;;;;;;5082432;28;20334;-64
2023/10/15 06:29:15;;;;;;;1.35;1.20;;;7.60;99.90;;;;;;5075446;28;20203;-64
2023/10/15 06:31:43;;;;;;;4.25;1.77;;;7.50;99.90;;;;;;5082360;28;20224;-64
2023/10/15 06:34:11;;;;;;;3.38;1.17;;;7.70;99.90;;;;;;5075381;28;20314;-63
2023/10/15 06:36:38;;;;;;;1.98;1.77;;;7.90;99.90;;;;;;5086034;28;20214;-63
2023/10/15 06:39:08;;;;;;;0.80;0.70;;;8.10;99.90;;;;;;5080183;28;20199;-63
2023/10/15 06:41:37;;;;;;;3.63;1.52;;;8.10;99.90;;;;;;5075022;28;20313;-62
2023/10/15 06:44:08;;;;;;;1.70;1.10;;;8.10;99.90;;;;;;5085922;28;20225;-63
2023/10/15 06:46:38;;;;;;;2.45;1.33;;;8.20;99.90;;;;;;5076622;28;20652;-64
2023/10/15 06:49:07;;;;;;;2.00;1.15;;;8.20;99.90;;;;;;5075252;28;20582;-64
2023/10/15 06:51:35;;;;;;;6.72;1.90;;;8.40;99.90;;;;;;5080935;28;20292;-63
2023/10/15 06:54:03;;;;;;;2.38;1.05;;;8.40;99.90;;;;;;5078793;28;20231;-63
2023/10/15 06:56:31;;;;;;;5.90;1.00;;;8.30;99.90;;;;;;5085210;28;20209;-63
2023/10/15 06:58:59;;;;;;;2.33;1.00;;;8.40;99.90;;;;;;5082597;28;20735;-63
2023/10/15 07:01:30;;;;;;;3.00;1.15;;;8.30;99.90;;;;;;5079488;28;20294;-63
2023/10/15 07:03:58;;;;;;;3.50;1.13;;;8.30;99.90;;;;;;5081215;28;20272;-63
2023/10/15 07:06:26;;;;;;;1.17;1.00;;;8.30;99.90;;;;;;5085813;28;20213;-63
2023/10/15 07:08:54;;;;;;;2.22;1.20;;;8.30;99.90;;;;;;5079195;28;20257;-63
2023/10/15 07:11:23;;;;;;;3.28;1.00;;;8.50;99.90;;;;;;5072464;28;20277;-63
2023/10/15 07:13:51;;;;;;;4.13;1.55;;;8.60;99.90;;;;;;5071885;28;20227;-63
2023/10/15 07:16:19;;;;;;;2.50;1.35;;;8.60;99.90;;;;;;5074145;28;20211;-63
2023/10/15 07:18:49;;;;;;;4.70;1.13;;;8.80;99.90;;;;;;5073854;28;20257;-64
2023/10/15 07:21:16;;;;;;;6.90;1.38;;;8.90;99.90;;;;;;5071816;28;20199;-65
2023/10/15 07:23:45;;;;;;;5.90;1.45;;;8.90;99.90;;;;;;5073905;28;20223;-64
2023/10/15 07:26:13;;;;;;;1.10;0.98;;;9.20;99.90;;;;;;5077107;28;20198;-64
2023/10/15 07:28:41;;;;;;;2.08;1.10;;;9.30;99.90;;;;;;5074524;28;20735;-63
2023/10/15 07:31:09;;;;;;;1.13;0.80;;;9.40;99.90;;;;;;5080943;28;20606;-64
2023/10/15 07:33:37;;;;;;;2.95;1.73;;;9.50;99.90;;;;;;5075173;28;20654;-64
2023/10/15 07:36:06;;;;;;;2.58;1.00;;;9.50;99.90;;;;;;5088356;28;20714;-64
2023/10/15 07:38:36;;;;;;;1.48;0.90;;;9.40;99.90;;;;;;5083830;28;20214;-63
2023/10/15 07:41:05;;;;;;;4.63;1.20;;;9.30;99.90;;;;;;5073848;28;20257;-64
2023/10/15 07:43:33;;;;;;;2.10;1.00;;;9.30;99.90;;;;;;5073753;28;20260;-63
2023/10/15 07:46:01;;;;;;;2.97;1.20;;;9.20;99.90;;;;;;5075359;28;20207;-64
2023/10/15 07:48:29;;;;;;;1.45;0.90;;;9.20;99.90;;;;;;5076092;28;20198;-63
2023/10/15 07:50:57;;;;;;;2.00;1.00;;;9.20;99.90;;;;;;5074197;28;20210;-64
2023/10/15 07:53:26;;;;;;;1.77;1.08;;;9.30;99.90;;;;;;5072608;28;20227;-64
2023/10/15 07:55:55;;;;;;;2.45;1.10;;;9.20;99.90;;;;;;5074301;28;20199;-64
2023/10/15 07:58:23;;;;;;;1.75;1.27;;;9.20;99.90;;;;;;5076980;28;20264;-63
2023/10/15 08:00:53;;;;;;;3.30;1.10;;;9.30;99.90;;;;;;5074268;28;20210;-63
2023/10/15 08:03:38;;;;;;;4.28;2.15;;;9.30;99.90;;;;;;5073845;28;20223;-64
2023/10/15 08:06:07;;;;;;;3.92;1.73;;;9.70;99.90;;;;;;5081325;28;20203;-64
2023/10/15 08:08:37;;;;;;;2.83;1.40;;;9.80;99.90;;;;;;5075458;28;20211;-63
2023/10/15 08:11:05;;;;;;;2.67;1.23;;;10.00;99.90;;;;;;5073841;28;20261;-64
2023/10/15 08:13:33;;;;;;;1.10;1.00;;;10.10;99.90;;;;;;5073403;28;20227;-64
2023/10/15 08:16:01;;;;;;;2.25;1.30;;;9.90;99.90;;;;;;5075021;28;20286;-63
2023/10/15 08:18:29;;;;;;;3.25;1.38;;;9.90;99.90;;;;;;5077084;28;20210;-64
2023/10/15 08:20:57;;;;;;;2.55;1.23;;;9.80;99.90;;;;;;5080978;28;20625;-64
2023/10/15 08:23:24;;;;;;;1.38;1.27;;;9.70;99.90;;;;;;5073529;28;20899;-64
2023/10/15 08:25:54;;;;;;;1.17;1.08;;;9.70;99.90;;;;;;5071705;28;20684;-64
2023/10/15 08:28:22;;;;;;;1.88;1.00;;;9.80;99.90;;;;;;5073801;28;20576;-64
2023/10/15 08:30:54;;;;;;;1.63;1.05;;;10.10;99.90;;;;;;5074727;28;20203;-64
2023/10/15 08:33:22;;;;;;;2.25;1.00;;;10.40;99.90;;;;;;5079017;28;20231;-64
2023/10/15 08:35:50;;;;;;;2.83;1.30;;;10.90;99.90;;;;;;5081128;28;20263;-64
2023/10/15 08:38:18;;;;;;;2.58;1.00;;;10.90;99.90;;;;;;5085070;28;20205;-64
2023/10/15 08:40:46;;;;;;;1.92;0.77;;;11.20;99.90;;;;;;5077404;28;20549;-64
2023/10/15 08:43:22;;;;;;;1.00;0.70;;;11.70;99.90;;;;;;5077345;28;20227;-64
2023/10/15 08:45:51;;;;;;;1.45;0.90;;;12.10;99.90;;;;;;5077209;28;20202;-64
2023/10/15 08:48:20;;;;;;;2.65;1.20;;;12.30;99.90;;;;;;5076642;28;20206;-64
2023/10/15 08:50:48;;;;;;;1.42;0.90;;;12.20;99.90;;;;;;5085706;28;20203;-64
2023/10/15 08:53:17;;;;;;;1.15;0.95;;;12.60;99.90;;;;;;5077089;28;20226;-64
2023/10/15 08:55:46;;;;;;;4.35;1.23;;;12.90;99.90;;;;;;5076588;28;20581;-64
2023/10/15 08:58:17;;;;;;;3.20;1.58;;;13.20;99.90;;;;;;5076214;28;20272;-64
2023/10/15 09:00:49;;;;;;;2.97;0.90;;;13.50;99.90;;;;;;5085163;28;20199;-64
2023/10/15 09:03:19;;;;;;;1.73;1.05;;;13.50;99.90;;;;;;5076819;28;20223;-65
2023/10/15 09:05:52;;;;;;;0.90;0.70;;;13.80;99.90;;;;;;5085104;28;20199;-64
2023/10/15 09:08:22;;;;;;;0.88;0.85;;;13.70;99.90;;;;;;5076336;28;20207;-64
2023/10/15 09:10:52;;;;;;;1.10;0.70;;;13.80;99.90;;;;;;5077084;28;20207;-64
2023/10/15 09:13:25;;;;;;;1.38;0.80;;;13.50;99.90;;;;;;5079276;28;20226;-64
2023/10/15 09:15:55;;;;;;;1.95;0.73;;;13.40;99.90;;;;;;5077147;28;20238;-64
2023/10/15 09:18:26;;;;;;;2.45;0.80;;;13.30;99.90;;;;;;5080181;28;20211;-64
2023/10/15 09:20:58;;;;;;;0.95;0.70;;;13.00;99.90;;;;;;5085054;28;20290;-64
2023/10/15 09:23:26;;;;;;;1.02;0.63;;;13.00;99.90;;;;;;5076137;28;20227;-64
2023/10/15 09:25:55;;;;;;;1.50;0.63;;;12.80;99.90;;;;;;5076869;28;20204;-64
2023/10/15 09:28:27;;;;;;;1.02;0.50;;;13.30;99.90;;;;;;5077905;28;20207;-64
2023/10/15 09:31:03;;;;;;;0.73;0.60;;;13.70;99.90;;;;;;5076664;28;20203;-64
2023/10/15 09:33:33;;;;;;;0.80;0.50;;;14.20;99.90;;;;;;5076116;28;20219;-64
2023/10/15 09:36:02;;;;;;;1.13;0.75;;;14.70;99.90;;;;;;5085794;28;20550;-64
2023/10/15 09:38:32;;;;;;;0.90;0.50;;;15.30;99.90;;;;;;5078791;28;20217;-64
2023/10/15 09:41:00;;;;;;;2.78;0.70;;;15.30;99.90;;;;;;5076297;28;20261;-64
2023/10/15 09:43:31;;;;;;;0.70;0.70;;;14.50;99.90;;;;;;5084236;28;20650;-64
2023/10/15 09:45:59;;;;;;;0.70;0.70;;;14.00;99.90;;;;;;5084790;28;20205;-64
2023/10/15 09:48:28;;;;;;;1.10;0.60;;;13.50;99.90;;;;;;5083033;28;20624;-64
2023/10/15 09:50:59;;;;;;;1.58;0.60;;;13.00;99.90;;;;;;5076102;28;20213;-64
2023/10/15 09:53:28;;;;;;;1.55;0.80;;;12.90;99.90;;;;;;5075883;28;20261;-64
2023/10/15 09:55:58;;;;;;;0.98;0.70;;;12.80;99.90;;;;;;5076803;28;20527;-63
2023/10/15 09:58:26;;;;;;;0.80;0.60;;;12.70;99.90;;;;;;5079235;28;20566;-64
2023/10/15 10:01:08;;;;;;;0.80;0.60;;;12.60;99.90;;;;;;5076277;28;20258;-64
2023/10/15 10:04:14;;;;;;;2.35;0.65;;;13.00;99.90;;;;;;5075941;28;20219;-64
2023/10/15 10:07:05;;;;;;;0.75;0.60;;;13.00;99.90;;;;;;5082049;28;20574;-64
2023/10/15 10:09:54;;;;;;;0.75;0.50;;;13.20;99.90;;;;;;5069235;28;20636;-64
2023/10/15 10:12:44;;;;;;;0.60;0.40;;;13.80;99.90;;;;;;5075255;28;20210;-64
2023/10/15 10:15:23;;;;;;;1.50;0.50;;;14.00;99.90;;;;;;5075189;28;20723;-64
2023/10/15 10:17:55;;;;;;;0.90;0.60;;;13.70;99.90;;;;;;5075189;28;20735;-64
2023/10/15 10:20:31;;;;;;;1.55;0.70;;;13.30;99.90;;;;;;5075273;28;20281;-64
2023/10/15 10:23:02;;;;;;;2.03;0.60;;;12.80;99.90;;;;;;5082777;28;20222;-64
2023/10/15 10:25:32;;;;;;;0.88;0.60;;;12.70;99.90;;;;;;5075723;28;20735;-64
2023/10/15 10:28:07;;;;;;;0.70;0.40;;;12.40;99.90;;;;;;5076341;28;20631;-64
2023/10/15 10:30:53;;;;;;;0.60;0.50;;;12.40;99.90;;;;;;5076199;28;20256;-64
2023/10/15 10:33:49;;;;;;;1.10;0.50;;;12.50;99.90;;;;;;5075600;28;20704;-63
2023/10/15 10:36:19;;;;;;;0.60;0.50;;;12.50;99.90;;;;;;5090943;28;20206;-64
2023/10/15 10:38:57;;;;;;;1.10;0.60;;;12.50;99.90;;;;;;5084001;28;20268;-63
2023/10/15 10:41:35;;;;;;;0.70;0.60;;;13.20;99.90;;;;;;5083887;28;20307;-64
2023/10/15 10:44:04;;;;;;;0.93;0.57;;;13.90;99.90;;;;;;5077008;28;20229;-64
2023/10/15 10:46:53;;;;;;;0.60;0.50;;;14.20;99.90;;;;;;5074147;28;20650;-64
2023/10/15 10:49:34;;;;;;;0.95;0.50;;;14.90;99.90;;;;;;5074000;28;20210;-64
2023/10/15 10:52:06;;;;;;;0.93;0.60;;;15.30;99.90;;;;;;5076917;28;20260;-64
2023/10/15 10:54:36;;;;;;;0.70;0.60;;;15.50;99.90;;;;;;5077520;28;20218;-63
2023/10/15 10:57:08;;;;;;;0.80;0.50;;;15.50;99.90;;;;;;5075462;28;20294;-64
2023/10/15 10:59:37;;;;;;;1.67;0.70;;;15.50;99.90;;;;;;5074987;28;20261;-64
2023/10/15 11:02:07;;;;;;;0.65;0.60;;;15.20;99.90;;;;;;5080820;28;20199;-64
2023/10/15 11:04:38;;;;;;;1.23;0.50;;;14.50;99.90;;;;;;5078450;28;20271;-64
2023/10/15 11:07:07;;;;;;;1.25;0.75;;;14.00;99.90;;;;;;5090689;28;20205;-64
2023/10/15 11:09:38;;;;;;;1.30;1.20;;;13.60;99.90;;;;;;5076973;28;20207;-64
2023/10/15 11:12:09;;;;;;;1.17;0.60;;;13.70;99.90;;;;;;5076847;28;20231;-64
2023/10/15 11:14:37;;;;;;;1.75;0.70;;;13.70;99.90;;;;;;5076908;28;20240;-64
2023/10/15 11:17:07;;;;;;;0.70;0.55;;;13.70;99.90;;;;;;5077187;28;20256;-64
2023/10/15 11:19:37;;;;;;;1.52;0.60;;;14.00;99.90;;;;;;5077687;28;20207;-64
2023/10/15 11:22:06;;;;;;;0.70;0.50;;;14.10;99.90;;;;;;5077066;28;20207;-64
2023/10/15 11:24:34;;;;;;;0.60;0.50;;;13.90;99.90;;;;;;5077873;28;20218;-64
2023/10/15 11:27:06;;;;;;;1.05;0.60;;;13.60;99.90;;;;;;5075507;28;20209;-64
2023/10/15 11:29:35;;;;;;;0.70;0.70;;;13.40;99.90;;;;;;5076031;28;20578;-64
2023/10/15 11:32:06;;;;;;;1.67;0.50;;;13.10;99.90;;;;;;5078695;28;20199;-65
2023/10/15 11:34:35;;;;;;;1.52;0.70;;;12.90;99.90;;;;;;5082944;28;20301;-64
2023/10/15 11:37:05;;;;;;;1.20;0.73;;;12.80;99.90;;;;;;5090376;28;20202;-64
2023/10/15 11:39:41;;;;;;;0.90;0.60;;;12.60;99.90;;;;;;5078147;28;20207;-64
2023/10/15 11:42:09;;;;;;;1.33;0.88;;;12.40;99.90;;;;;;5077599;28;20223;-63
2023/10/15 11:44:41;;;;;;;1.85;0.60;;;12.30;99.90;;;;;;5076731;28;20218;-64
2023/10/15 11:47:15;;;;;;;1.25;0.60;;;11.60;99.90;;;;;;5075678;28;20206;-63
2023/10/15 11:49:44;;;;;;;3.05;0.50;;;11.10;99.90;;;;;;5075280;28;20620;-64
2023/10/15 11:52:16;;;;;;;1.40;0.70;;;10.70;99.90;;;;;;5078296;28;21653;-64
2023/10/15 11:54:49;;;;;;;1.33;0.65;;;10.50;99.90;;;;;;5076748;28;20763;-64
2023/10/15 11:57:22;;;;;;;0.68;0.65;;;10.40;99.90;;;;;;5075619;28;20364;-64
2023/10/15 11:59:50;;;;;;;0.73;0.65;;;10.20;99.90;;;;;;5075387;28;20207;-65
2023/10/15 12:02:23;;;;;;;1.08;0.52;;;10.10;99.90;;;;;;5074697;28;20199;-64
2023/10/15 12:04:52;;;;;;;0.90;0.55;;;10.20;99.90;;;;;;5076057;28;20603;-64
2023/10/15 12:07:22;;;;;;;0.70;0.60;;;10.10;99.90;;;;;;5088285;28;20207;-64
2023/10/15 12:09:50;;;;;;;2.40;0.80;;;10.10;99.90;;;;;;5074342;28;20210;-64
2023/10/15 12:12:18;;;;;;;0.75;0.60;;;10.20;99.90;;;;;;5077445;28;20209;-64
2023/10/15 12:14:46;;;;;;;1.80;0.50;;;10.30;99.90;;;;;;5080241;28;20229;-64
2023/10/15 12:17:15;;;;;;;0.70;0.60;;;10.40;99.90;;;;;;5079155;28;20206;-64
2023/10/15 12:19:47;;;;;;;0.60;0.40;;;10.40;99.90;;;;;;5079998;28;20199;-64
2023/10/15 12:22:24;;;;;;;1.05;0.93;;;10.60;99.90;;;;;;5077421;28;20202;-64
2023/10/15 12:24:52;;;;;;;1.98;0.45;;;10.40;99.90;;;;;;5079746;28;20230;-64
2023/10/15 12:27:20;;;;;;;1.30;0.60;;;10.50;99.90;;;;;;5079248;28;20821;-64
2023/10/15 12:29:48;;;;;;;0.60;0.50;;;10.60;99.90;;;;;;5078629;28;20731;-64
2023/10/15 12:32:20;;;;;;;0.70;0.40;;;11.00;99.90;;;;;;5084933;28;20202;-64
2023/10/15 12:35:10;;;;;;;0.80;0.70;;;12.00;99.90;;;;;;5085975;28;20230;-64
2023/10/15 12:37:39;;;;;;;0.80;0.50;;;12.80;99.90;;;;;;5080860;28;20203;-64
2023/10/15 12:40:12;;;;;;;1.85;0.50;;;13.70;99.90;;;;;;5082166;28;20258;-64
2023/10/15 12:42:41;;;;;;;0.70;0.50;;;14.50;99.90;;;;;;5081179;28;20230;-63
2023/10/15 12:45:13;;;;;;;0.60;0.50;;;15.00;99.90;;;;;;5079137;28;20195;-64
2023/10/15 12:47:41;;;;;;;0.73;0.50;;;15.20;99.90;;;;;;5086786;28;20202;-63
2023/10/15 12:50:14;;;;;;;0.70;0.50;;;15.60;99.90;;;;;;5089142;28;20198;-67
2023/10/15 12:52:45;;;;;;;0.60;0.40;;;16.10;99.90;;;;;;5078693;28;20253;-64
2023/10/15 12:55:15;;;;;;;0.60;0.40;;;16.20;99.90;;;;;;5078525;28;20237;-64
2023/10/15 12:57:43;;;;;;;1.40;0.60;;;16.80;99.90;;;;;;5079502;28;20224;-64
2023/10/15 13:00:17;;;;;;;1.35;0.50;;;17.10;99.90;;;;;;5077082;28;20203;-64
2023/10/15 13:02:45;;;;;;;0.60;0.50;;;17.50;99.90;;;;;;5080055;28;20260;-64
2023/10/15 13:05:14;;;;;;;0.82;0.60;;;17.90;99.90;;;;;;5078528;28;20202;-64
2023/10/15 13:07:44;;;;;;;0.70;0.70;;;18.10;99.90;;;;;;5079744;28;20218;-64
2023/10/15 13:10:13;;;;;;;0.85;0.60;;;18.20;99.90;;;;;;5079215;28;20202;-64
2023/10/15 13:12:41;;;;;;;0.63;0.50;;;18.60;99.90;;;;;;5081193;28;20625;-64